createdAt,value
2022-11-15T00:00:53.998Z,5.22
2022-11-15T00:03:23.532Z,5.24
2022-11-15T00:05:50.311Z,5.25
2022-11-15T00:08:17.137Z,5.25
2022-11-15T00:10:43.886Z,5.27
2022-11-15T00:13:13.438Z,5.28
2022-11-15T00:15:41.671Z,5.28
2022-11-15T00:18:14.084Z,5.25
2022-11-15T00:20:40.829Z,5.29
2022-11-15T00:23:07.806Z,5.31
2022-11-15T00:25:34.548Z,5.31
2022-11-15T00:28:01.399Z,5.28
2022-11-15T00:30:28.507Z,5.28
2022-11-15T00:32:55.503Z,5.31
2022-11-15T00:35:22.416Z,5.36
2022-11-15T00:37:48.903Z,5.36
2022-11-15T00:40:16.268Z,5.36
2022-11-15T00:42:43.065Z,5.39
2022-11-15T00:45:10.767Z,5.37
2022-11-15T00:47:37.201Z,5.38
2022-11-15T00:50:04.091Z,5.42
2022-11-15T00:52:30.598Z,5.43
2022-11-15T00:54:57.057Z,5.44
2022-11-15T00:57:23.601Z,5.47
2022-11-15T00:59:49.961Z,5.48
2022-11-15T01:02:16.376Z,5.46
2022-11-15T01:04:42.736Z,5.47
2022-11-15T01:07:09.226Z,5.49
2022-11-15T01:09:35.746Z,5.50
2022-11-15T01:12:02.167Z,5.52
2022-11-15T01:14:28.598Z,5.52
2022-11-15T01:16:55.058Z,5.51
2022-11-15T01:19:21.640Z,5.53
2022-11-15T01:21:50.802Z,5.52
2022-11-15T01:24:17.385Z,5.51
2022-11-15T01:26:43.752Z,5.62
2022-11-15T01:29:10.252Z,5.61
2022-11-15T01:31:36.645Z,5.60
2022-11-15T01:34:04.124Z,5.60
2022-11-15T01:36:30.518Z,5.63
2022-11-15T01:39:00.484Z,5.63
2022-11-15T01:41:30.364Z,5.59
2022-11-15T01:44:32.204Z,5.70
2022-11-15T01:47:01.838Z,5.66
2022-11-15T01:49:31.179Z,5.75
2022-11-15T01:51:58.404Z,5.73
2022-11-15T01:54:25.663Z,5.77
2022-11-15T01:56:57.636Z,5.78
2022-11-15T01:59:24.337Z,5.79
2022-11-15T02:01:51.461Z,5.80
2022-11-15T02:04:23.783Z,5.84
2022-11-15T02:06:50.499Z,5.86
2022-11-15T02:09:18.109Z,5.89
2022-11-15T02:11:45.945Z,5.92
2022-11-15T02:14:15.412Z,5.98
2022-11-15T02:17:26.696Z,6.01
2022-11-15T02:20:16.872Z,6.07
2022-11-15T02:23:06.525Z,6.08
2022-11-15T02:26:08.567Z,6.13
2022-11-15T02:29:09.804Z,6.15
2022-11-15T02:32:07.136Z,6.07
2022-11-15T02:34:46.521Z,6.19
2022-11-15T02:37:22.353Z,6.29
2022-11-15T02:39:57.661Z,6.25
2022-11-15T02:42:53.542Z,6.30
2022-11-15T02:45:34.553Z,6.33
2022-11-15T02:48:03.469Z,6.40
2022-11-15T02:50:32.763Z,6.36
2022-11-15T02:52:59.188Z,6.32
2022-11-15T02:55:42.303Z,6.34
2022-11-15T02:58:29.125Z,6.35
2022-11-15T03:01:07.343Z,6.36
2022-11-15T03:03:55.615Z,6.44
2022-11-15T03:06:28.125Z,6.49
2022-11-15T03:09:25.205Z,6.57
2022-11-15T03:12:00.353Z,6.64
2022-11-15T03:14:31.719Z,6.70
2022-11-15T03:17:10.827Z,6.68
2022-11-15T03:19:45.857Z,6.71
2022-11-15T03:22:17.613Z,6.75
2022-11-15T03:24:46.433Z,6.95
2022-11-15T03:27:18.254Z,6.86
2022-11-15T03:29:51.632Z,6.81
2022-11-15T03:32:26.127Z,6.76
2022-11-15T03:35:03.847Z,6.88
2022-11-15T03:37:47.547Z,6.81
2022-11-15T03:40:14.589Z,6.99
2022-11-15T03:42:49.695Z,6.99
2022-11-15T03:45:34.445Z,6.97
2022-11-15T03:48:09.828Z,7.04
2022-11-15T03:50:36.565Z,7.13
2022-11-15T03:53:03.497Z,7.16
2022-11-15T03:55:33.592Z,7.07
2022-11-15T03:58:01.877Z,7.01
2022-11-15T04:00:29.350Z,6.96
2022-11-15T04:02:55.975Z,6.89
2022-11-15T04:05:22.521Z,6.91
2022-11-15T04:07:48.954Z,6.90
2022-11-15T04:10:15.817Z,6.82
2022-11-15T04:12:47.240Z,7.14
2022-11-15T04:15:16.472Z,7.14
2022-11-15T04:17:45.794Z,7.41
2022-11-15T04:20:39.784Z,7.44
2022-11-15T04:23:44.493Z,7.50
2022-11-15T04:26:16.914Z,7.51
2022-11-15T04:29:01.703Z,7.46
2022-11-15T04:31:28.673Z,7.46
2022-11-15T04:33:56.390Z,7.58
2022-11-15T04:36:41.633Z,7.55
2022-11-15T04:39:08.302Z,7.23
2022-11-15T04:41:34.888Z,7.46
2022-11-15T04:44:01.388Z,7.32
2022-11-15T04:46:27.945Z,7.15
2022-11-15T04:48:58.576Z,7.26
2022-11-15T04:51:25.644Z,7.25
2022-11-15T04:53:52.067Z,7.10
2022-11-15T04:56:19.717Z,7.05
2022-11-15T04:58:46.112Z,6.93
2022-11-15T05:01:17.907Z,6.93
2022-11-15T05:04:04.246Z,6.94
2022-11-15T05:06:31.449Z,7.20
2022-11-15T05:08:57.991Z,7.37
2022-11-15T05:11:24.936Z,7.32
2022-11-15T05:13:51.474Z,7.57
2022-11-15T05:16:17.881Z,7.53
2022-11-15T05:18:44.422Z,7.49
2022-11-15T05:21:13.615Z,7.65
2022-11-15T05:23:40.909Z,7.72
2022-11-15T05:26:09.440Z,7.88
2022-11-15T05:28:37.535Z,8.03
2022-11-15T05:31:09.479Z,7.88
2022-11-15T05:33:40.580Z,7.78
2022-11-15T05:36:32.643Z,7.67
2022-11-15T05:38:59.167Z,7.67
2022-11-15T05:41:31.104Z,7.46
2022-11-15T05:43:58.382Z,7.68
2022-11-15T05:46:25.137Z,8.03
2022-11-15T05:48:53.470Z,7.64
2022-11-15T05:51:23.580Z,7.90
2022-11-15T05:53:52.111Z,7.84
2022-11-15T05:56:18.551Z,7.74
2022-11-15T05:58:45.150Z,7.85
2022-11-15T06:01:11.722Z,7.71
2022-11-15T06:03:38.151Z,7.91
2022-11-15T06:06:04.894Z,7.69
2022-11-15T06:08:31.340Z,7.69
2022-11-15T06:10:57.872Z,7.71
2022-11-15T06:13:24.398Z,7.73
2022-11-15T06:15:50.855Z,7.70
2022-11-15T06:18:17.290Z,7.69
2022-11-15T06:20:43.772Z,7.69
2022-11-15T06:23:10.247Z,7.71
2022-11-15T06:25:36.613Z,7.62
2022-11-15T06:28:03.139Z,7.65
2022-11-15T06:30:29.619Z,7.70
2022-11-15T06:33:01.010Z,7.66
2022-11-15T06:35:27.497Z,7.95
2022-11-15T06:37:54.038Z,8.01
2022-11-15T06:40:20.468Z,8.01
2022-11-15T06:42:46.904Z,8.19
2022-11-15T06:45:13.351Z,8.01
2022-11-15T06:47:47.589Z,7.94
2022-11-15T06:50:14.291Z,7.96
2022-11-15T06:52:40.741Z,7.85
2022-11-15T06:55:07.925Z,7.83
2022-11-15T06:57:34.459Z,7.89
2022-11-15T07:00:00.915Z,7.87
2022-11-15T07:02:27.293Z,7.88
2022-11-15T07:04:53.704Z,8.11
2022-11-15T07:07:20.208Z,7.97
2022-11-15T07:09:46.631Z,8.03
2022-11-15T07:12:13.062Z,8.04
2022-11-15T07:14:39.500Z,8.06
2022-11-15T07:17:06.089Z,8.16
2022-11-15T07:19:32.771Z,8.14
2022-11-15T07:21:59.322Z,8.19
2022-11-15T07:24:25.766Z,8.13
2022-11-15T07:26:52.401Z,8.18
2022-11-15T07:29:19.008Z,8.19
2022-11-15T07:31:45.431Z,8.27
2022-11-15T07:34:12.003Z,8.29
2022-11-15T07:36:38.445Z,8.28
2022-11-15T07:39:04.837Z,8.29
2022-11-15T07:41:31.389Z,8.15
2022-11-15T07:43:58.568Z,8.12
2022-11-15T07:46:29.078Z,8.15
2022-11-15T07:48:55.531Z,8.32
2022-11-15T07:51:21.928Z,8.28
2022-11-15T07:53:48.361Z,8.19
2022-11-15T07:56:14.777Z,8.00
2022-11-15T07:58:41.881Z,8.14
2022-11-15T08:01:10.575Z,8.17
2022-11-15T08:03:38.177Z,8.19
2022-11-15T08:06:04.984Z,8.19
2022-11-15T08:08:31.555Z,8.31
2022-11-15T08:11:01.562Z,8.30
2022-11-15T08:13:28.600Z,8.35
2022-11-15T08:16:02.803Z,8.39
2022-11-15T08:18:29.483Z,8.28
2022-11-15T08:21:00.833Z,8.34
2022-11-15T08:23:27.325Z,8.44
2022-11-15T08:25:53.770Z,8.47
2022-11-15T08:28:20.255Z,8.49
2022-11-15T08:30:46.672Z,8.54
2022-11-15T08:33:14.942Z,8.61
2022-11-15T08:35:42.224Z,8.66
2022-11-15T08:38:08.864Z,8.68
2022-11-15T08:40:36.246Z,8.65
2022-11-15T08:43:03.624Z,8.74
2022-11-15T08:45:31.453Z,8.80
2022-11-15T08:47:58.062Z,8.83
2022-11-15T08:50:24.552Z,8.80
2022-11-15T08:52:51.118Z,8.83
2022-11-15T08:55:17.942Z,8.85
2022-11-15T08:57:44.618Z,8.91
2022-11-15T09:00:12.774Z,8.94
2022-11-15T09:02:40.713Z,8.97
2022-11-15T09:05:08.446Z,9.02
2022-11-15T09:07:35.268Z,9.04
2022-11-15T09:10:01.819Z,9.07
2022-11-15T09:12:28.343Z,9.21
2022-11-15T09:14:54.921Z,9.26
2022-11-15T09:17:24.633Z,9.15
2022-11-15T09:19:51.810Z,9.25
2022-11-15T09:22:18.831Z,9.30
2022-11-15T09:24:45.364Z,9.35
2022-11-15T09:27:11.860Z,9.40
2022-11-15T09:29:38.265Z,9.42
2022-11-15T09:32:05.044Z,9.51
2022-11-15T09:34:31.427Z,9.55
2022-11-15T09:36:57.917Z,9.58
2022-11-15T09:39:24.414Z,9.57
2022-11-15T09:42:15.613Z,9.87
2022-11-15T09:45:00.635Z,10.01
2022-11-15T09:47:58.589Z,10.33
2022-11-15T09:50:35.326Z,10.70
2022-11-15T09:53:02.127Z,10.87
2022-11-15T09:55:36.999Z,10.90
2022-11-15T09:58:36.806Z,10.97
2022-11-15T10:01:09.071Z,10.92
2022-11-15T10:03:42.672Z,10.87
2022-11-15T10:06:13.824Z,10.94
2022-11-15T10:08:54.194Z,11.28
2022-11-15T10:11:40.430Z,11.68
2022-11-15T10:14:14.663Z,11.72
2022-11-15T10:17:10.587Z,12.09
2022-11-15T10:19:41.563Z,12.38
2022-11-15T10:22:23.394Z,12.51
2022-11-15T10:24:53.231Z,12.51
2022-11-15T10:27:20.730Z,12.74
2022-11-15T10:29:49.468Z,13.03
2022-11-15T10:32:19.004Z,12.97
2022-11-15T10:34:46.066Z,13.12
2022-11-15T10:37:12.530Z,12.98
2022-11-15T10:39:39.328Z,13.14
2022-11-15T10:42:19.263Z,12.75
2022-11-15T10:44:46.397Z,12.73
2022-11-15T10:47:38.867Z,13.07
2022-11-15T10:50:26.601Z,13.09
2022-11-15T10:52:53.390Z,12.91
2022-11-15T10:55:27.317Z,12.94
2022-11-15T10:57:56.674Z,13.21
2022-11-15T11:00:23.055Z,13.11
2022-11-15T11:03:02.987Z,12.80
2022-11-15T11:05:38.126Z,12.63
2022-11-15T11:08:14.013Z,12.36
2022-11-15T11:11:02.788Z,11.73
2022-11-15T11:13:36.049Z,11.55
2022-11-15T11:16:06.491Z,11.32
2022-11-15T11:18:56.438Z,11.21
2022-11-15T11:21:50.648Z,11.21
2022-11-15T11:24:28.719Z,11.15
2022-11-15T11:27:09.627Z,11.18
2022-11-15T11:29:54.128Z,11.44
2022-11-15T11:32:44.848Z,11.56
2022-11-15T11:35:21.321Z,11.70
2022-11-15T11:37:53.516Z,11.65
2022-11-15T11:40:35.939Z,11.59
2022-11-15T11:43:29.823Z,11.63
2022-11-15T11:46:18.760Z,11.53
2022-11-15T11:48:49.921Z,11.57
2022-11-15T11:51:21.961Z,11.64
2022-11-15T11:54:05.006Z,11.72
2022-11-15T11:56:36.371Z,11.73
2022-11-15T11:59:22.339Z,11.68
2022-11-15T12:01:48.903Z,11.57
2022-11-15T12:04:15.414Z,11.43
2022-11-15T12:06:52.911Z,11.30
2022-11-15T12:09:31.514Z,11.36
2022-11-15T12:12:36.867Z,11.31
2022-11-15T12:15:48.281Z,11.34
2022-11-15T12:18:17.322Z,11.29
2022-11-15T12:20:57.496Z,11.24
2022-11-15T12:23:32.017Z,11.19
2022-11-15T12:26:21.715Z,11.25
2022-11-15T12:29:07.807Z,11.22
2022-11-15T12:31:35.277Z,11.22
2022-11-15T12:34:07.598Z,11.06
2022-11-15T12:36:40.454Z,11.11
2022-11-15T12:39:11.735Z,11.12
2022-11-15T12:42:04.997Z,11.07
2022-11-15T12:44:31.506Z,11.11
2022-11-15T12:46:57.837Z,11.09
2022-11-15T12:49:24.197Z,11.08
2022-11-15T12:51:51.824Z,11.15
2022-11-15T12:54:24.402Z,11.18
2022-11-15T12:57:08.823Z,11.19
2022-11-15T13:00:05.205Z,11.05
2022-11-15T13:02:34.616Z,11.21
2022-11-15T13:05:16.044Z,11.22
2022-11-15T13:07:42.404Z,11.21
2022-11-15T13:10:28.108Z,11.20
2022-11-15T13:12:59.701Z,11.21
2022-11-15T13:15:38.214Z,11.22
2022-11-15T13:18:40.379Z,11.22
2022-11-15T13:21:40.360Z,11.10
2022-11-15T13:24:13.885Z,11.19
2022-11-15T13:26:41.070Z,11.10
2022-11-15T13:29:16.890Z,11.10
2022-11-15T13:31:44.816Z,11.08
2022-11-15T13:37:20.756Z,11.08
2022-11-15T13:39:48.988Z,11.03
2022-11-15T13:42:20.980Z,10.97
2022-11-15T13:44:57.848Z,10.84
2022-11-15T13:47:30.846Z,10.85
2022-11-15T13:50:02.209Z,10.78
2022-11-15T13:52:33.747Z,10.79
2022-11-15T13:55:05.677Z,10.75
2022-11-15T13:57:45.467Z,10.73
2022-11-15T14:00:35.828Z,10.70
2022-11-15T14:03:22.659Z,10.68
2022-11-15T14:06:04.503Z,10.69
2022-11-15T14:08:31.494Z,10.66
2022-11-15T14:11:10.180Z,10.66
2022-11-15T14:13:36.739Z,10.67
2022-11-15T14:16:17.560Z,10.68
2022-11-15T14:18:45.640Z,10.70
2022-11-15T14:21:12.413Z,10.62
2022-11-15T14:23:39.175Z,10.62
2022-11-15T14:26:11.409Z,10.62
2022-11-15T14:28:41.407Z,10.48
2022-11-15T14:31:13.985Z,10.55
2022-11-15T14:33:41.101Z,10.49
2022-11-15T14:36:13.649Z,10.45
2022-11-15T14:38:40.367Z,10.48
2022-11-15T14:41:18.386Z,10.47
2022-11-15T14:43:44.854Z,10.50
2022-11-15T14:46:11.338Z,10.48
2022-11-15T14:48:37.734Z,10.54
2022-11-15T14:51:04.199Z,10.50
2022-11-15T14:53:30.620Z,10.54
2022-11-15T14:55:59.131Z,10.55
2022-11-15T14:58:25.527Z,10.51
2022-11-15T15:00:51.984Z,10.49
2022-11-15T15:03:18.389Z,10.48
2022-11-15T15:05:45.538Z,10.52
2022-11-15T15:08:13.149Z,10.44
2022-11-15T15:10:43.423Z,10.49
2022-11-15T15:13:25.100Z,10.46
2022-11-15T15:15:52.852Z,10.50
2022-11-15T15:18:28.026Z,10.50
2022-11-15T15:20:58.334Z,10.44
2022-11-15T15:23:26.564Z,10.46
2022-11-15T15:25:53.752Z,10.45
2022-11-15T15:28:20.188Z,10.42
2022-11-15T15:30:46.697Z,10.42
2022-11-15T15:33:13.216Z,10.39
2022-11-15T15:35:39.640Z,10.42
2022-11-15T15:38:06.452Z,10.44
2022-11-15T15:40:34.193Z,10.45
2022-11-15T15:43:01.062Z,10.43
2022-11-15T15:45:28.681Z,10.45
2022-11-15T15:47:55.493Z,10.43
2022-11-15T15:50:34.166Z,10.44
2022-11-15T15:53:03.155Z,10.44
2022-11-15T15:55:29.909Z,10.38
2022-11-15T15:57:56.408Z,10.37
2022-11-15T16:00:25.610Z,10.30
2022-11-15T16:02:53.397Z,10.24
2022-11-15T16:05:19.974Z,10.20
2022-11-15T16:07:48.260Z,10.19
2022-11-15T16:10:33.062Z,10.10
2022-11-15T16:12:59.545Z,10.12
2022-11-15T16:15:30.012Z,10.05
2022-11-15T16:18:01.461Z,10.02
2022-11-15T16:20:34.599Z,10.00
2022-11-15T16:23:07.633Z,10.00
2022-11-15T16:25:43.040Z,9.94
2022-11-15T16:28:29.605Z,9.91
2022-11-15T16:31:02.296Z,9.90
2022-11-15T16:33:29.033Z,9.85
2022-11-15T16:35:55.453Z,9.85
2022-11-15T16:38:21.869Z,9.83
2022-11-15T16:40:49.432Z,9.81
2022-11-15T16:43:16.393Z,9.66
2022-11-15T16:45:44.215Z,9.70
2022-11-15T16:48:22.518Z,9.68
2022-11-15T16:50:49.126Z,9.63
2022-11-15T16:53:15.548Z,9.58
2022-11-15T16:55:42.120Z,9.58
2022-11-15T16:58:09.544Z,9.52
2022-11-15T17:00:36.067Z,9.52
2022-11-15T17:03:03.543Z,9.47
2022-11-15T17:05:30.032Z,9.46
2022-11-15T17:07:56.462Z,9.43
2022-11-15T17:10:24.535Z,9.45
2022-11-15T17:12:51.880Z,9.43
2022-11-15T17:15:19.113Z,9.43
2022-11-15T17:17:52.489Z,9.39
2022-11-15T17:20:20.126Z,9.38
2022-11-15T17:22:47.364Z,9.36
2022-11-15T17:25:14.611Z,9.37
2022-11-15T17:27:41.252Z,9.37
2022-11-15T17:30:08.663Z,9.40
2022-11-15T17:32:38.127Z,9.42
2022-11-15T17:35:11.988Z,9.39
2022-11-15T17:37:41.854Z,9.39
2022-11-15T17:40:08.785Z,9.40
2022-11-15T17:42:35.157Z,9.41
2022-11-15T17:45:05.302Z,9.39
2022-11-15T17:47:35.792Z,9.43
2022-11-15T17:50:02.330Z,9.39
2022-11-15T17:52:29.844Z,9.43
2022-11-15T17:54:56.230Z,9.46
2022-11-15T17:57:22.676Z,9.44
2022-11-15T17:59:49.146Z,9.46
2022-11-15T18:02:15.624Z,9.46
2022-11-15T18:04:42.115Z,9.48
2022-11-15T18:07:08.599Z,9.48
2022-11-15T18:09:35.087Z,9.50
2022-11-15T18:12:01.653Z,9.51
2022-11-15T18:14:28.198Z,9.52
2022-11-15T18:16:55.077Z,9.53
2022-11-15T18:19:21.603Z,9.54
2022-11-15T18:21:57.296Z,9.58
2022-11-15T18:24:29.315Z,9.62
2022-11-15T18:26:56.962Z,9.59
2022-11-15T18:29:26.838Z,9.63
2022-11-15T18:31:55.772Z,9.65
2022-11-15T18:34:31.990Z,9.67
2022-11-15T18:36:59.009Z,9.66
2022-11-15T18:39:25.532Z,9.72
2022-11-15T18:41:52.317Z,9.72
2022-11-15T18:44:19.143Z,9.72
2022-11-15T18:46:45.628Z,9.70
2022-11-15T18:49:14.158Z,9.72
2022-11-15T18:51:44.030Z,9.73
2022-11-15T18:54:13.390Z,9.76
2022-11-15T18:56:40.242Z,9.66
2022-11-15T18:59:08.282Z,9.75
2022-11-15T19:01:37.039Z,9.77
2022-11-15T19:04:12.306Z,9.78
2022-11-15T19:06:44.008Z,9.71
2022-11-15T19:09:12.768Z,9.74
2022-11-15T19:11:40.017Z,9.68
2022-11-15T19:14:11.956Z,9.75
2022-11-15T19:16:40.882Z,9.72
2022-11-15T19:19:11.668Z,9.71
2022-11-15T19:21:38.340Z,9.60
2022-11-15T19:24:05.509Z,9.77
2022-11-15T19:26:32.387Z,9.71
2022-11-15T19:29:01.600Z,9.63
2022-11-15T19:31:30.181Z,9.72
2022-11-15T19:33:59.386Z,9.72
2022-11-15T19:36:28.811Z,9.73
2022-11-15T19:38:56.396Z,9.70
2022-11-15T19:41:24.511Z,9.67
2022-11-15T19:43:52.339Z,9.72
2022-11-15T19:46:21.911Z,9.74
2022-11-15T19:48:49.349Z,9.76
2022-11-15T19:51:23.614Z,9.73
2022-11-15T19:53:53.088Z,9.76
2022-11-15T19:56:20.537Z,9.78
2022-11-15T19:58:52.076Z,9.79
2022-11-15T20:01:18.595Z,9.81
2022-11-15T20:03:46.738Z,9.75
2022-11-15T20:06:16.598Z,9.84
2022-11-15T20:08:44.260Z,9.83
2022-11-15T20:11:12.641Z,9.86
2022-11-15T20:13:39.423Z,9.84
2022-11-15T20:16:06.252Z,9.78
2022-11-15T20:18:34.617Z,9.77
2022-11-15T20:21:02.723Z,9.73
2022-11-15T20:23:29.103Z,9.85
2022-11-15T20:25:55.724Z,9.85
2022-11-15T20:28:27.049Z,9.86
2022-11-15T20:30:58.758Z,9.85
2022-11-15T20:33:26.024Z,9.86
2022-11-15T20:35:53.569Z,9.87
2022-11-15T20:38:21.272Z,9.85
2022-11-15T20:40:56.039Z,9.77
2022-11-15T20:43:25.616Z,9.84
2022-11-15T20:45:51.994Z,9.86
2022-11-15T20:48:18.554Z,9.92
2022-11-15T20:50:47.017Z,9.84
2022-11-15T20:53:15.833Z,9.91
2022-11-15T20:55:46.198Z,9.98
2022-11-15T20:58:12.614Z,9.94
2022-11-15T21:00:39.057Z,9.96
2022-11-15T21:03:06.918Z,9.91
2022-11-15T21:05:40.903Z,9.95
2022-11-15T21:08:08.229Z,9.96
2022-11-15T21:10:53.545Z,9.99
2022-11-15T21:13:20.213Z,10.01
2022-11-15T21:15:47.109Z,10.02
2022-11-15T21:18:14.900Z,9.97
2022-11-15T21:20:41.576Z,9.95
2022-11-15T21:23:08.555Z,9.83
2022-11-15T21:25:34.966Z,10.02
2022-11-15T21:28:01.469Z,10.03
2022-11-15T21:30:28.134Z,10.01
2022-11-15T21:32:54.633Z,9.98
2022-11-15T21:35:21.219Z,10.03
2022-11-15T21:37:51.842Z,10.04
2022-11-15T21:40:21.563Z,10.03
2022-11-15T21:42:48.107Z,10.02
2022-11-15T21:45:14.579Z,10.00
2022-11-15T21:47:45.727Z,9.84
2022-11-15T21:50:15.934Z,9.99
2022-11-15T21:52:42.432Z,10.01
2022-11-15T21:55:09.485Z,9.97
2022-11-15T21:57:35.866Z,9.97
2022-11-15T22:00:21.038Z,10.00
2022-11-15T22:02:47.600Z,10.04
2022-11-15T22:05:14.097Z,10.07
2022-11-15T22:07:40.735Z,10.07
2022-11-15T22:10:07.493Z,10.10
2022-11-15T22:12:33.969Z,10.07
2022-11-15T22:15:00.421Z,10.11
2022-11-15T22:17:46.801Z,10.06
2022-11-15T22:20:37.811Z,10.09
2022-11-15T22:23:01.594Z,10.06
2022-11-15T22:25:28.041Z,10.08
2022-11-15T22:27:54.693Z,10.06
2022-11-15T22:30:25.518Z,9.98
2022-11-15T22:32:51.896Z,10.03
2022-11-15T22:35:18.403Z,10.11
2022-11-15T22:37:44.821Z,10.09
2022-11-15T22:40:11.332Z,10.14
2022-11-15T22:42:37.777Z,10.12
2022-11-15T22:45:04.602Z,10.18
2022-11-15T22:47:31.019Z,10.15
2022-11-15T22:49:57.781Z,10.18
2022-11-15T22:52:24.226Z,10.11
2022-11-15T22:54:50.610Z,10.01
2022-11-15T22:57:17.098Z,10.13
2022-11-15T22:59:43.555Z,10.11
2022-11-15T23:02:09.944Z,10.17
2022-11-15T23:04:36.396Z,10.10
2022-11-15T23:07:02.859Z,10.13
2022-11-15T23:09:29.288Z,10.15
2022-11-15T23:12:14.415Z,10.18
2022-11-15T23:14:40.896Z,10.25
2022-11-15T23:17:07.385Z,10.26
2022-11-15T23:19:33.805Z,10.17
2022-11-15T23:25:02.600Z,10.13
2022-11-15T23:27:28.971Z,10.18
2022-11-15T23:30:14.162Z,10.15
2022-11-15T23:32:58.878Z,10.13
2022-11-15T23:35:25.586Z,10.19
2022-11-15T23:37:51.946Z,10.22
2022-11-15T23:40:18.459Z,10.20
2022-11-15T23:42:44.870Z,10.24
2022-11-15T23:45:11.496Z,10.16
2022-11-15T23:47:37.871Z,10.17
2022-11-15T23:50:06.415Z,10.20
2022-11-15T23:52:32.792Z,10.16
2022-11-15T23:54:59.418Z,10.19
2022-11-15T23:57:25.908Z,10.16
2022-11-15T23:59:52.482Z,10.22
